Badlands Natl Park, South Dakota
Current Conditions -  °F | °C
As of 7:55 AM on Friday 31 Oct 2014 (Local Time) from KPHP Reporting Station
Overcast Overcast  
Wind Chill: 20°   Ceiling: 1200
Heat Index: 29°   Visibility: 10mi
Dew Point: 23°   Wind: 9mph
Humidity: 78%   Direction: 130°SE
Pressure: 30.48"   Gusts: NA
Location:  43.78°N, 102.25°W
Report Text: KPHP 311355Z AUTO 13008KT 10SM OVC012 M02/M05 A3048 RMK AO2 SLP344 T10171050
Loading
Personal Weather Stations






























Interactive Weather Map
Tropical Storm Tracking
New forecast layout! Learn more

10-Day Weather Forecast

Advertisements
Track Severe Weather on mobile